Terminal Aerodrome Forecast
Issued by NWS Louisville, KY

Home | Current Version | Previous Version | Text Only | Print | Product List | Glossary On
Versions: 1 2 3 4 5 6 7 8 9 10 11 12 13 14 15 16 17 18
397
FTUS43 KLMK 041123
TAFBWG
TAF
KBWG 041123Z 0412/0512 22005KT P6SM BKN090
     FM041500 24012G18KT P6SM VCSH BKN025
     FM041900 29013G20KT 6SM -SHRA BKN030
     FM042300 30008KT P6SM SCT080=

USA.gov is the U.S. government's official web portal to all federal, state and local government web resources and services.